createdAt,value
2024-05-09T00:02:05.655Z,3.30
2024-05-09T00:04:51.449Z,3.70
2024-05-09T00:07:36.972Z,3.73
2024-05-09T00:10:29.092Z,3.20
2024-05-09T00:13:21.030Z,3.33
2024-05-09T00:16:07.222Z,3.53
2024-05-09T00:18:53.322Z,3.73
2024-05-09T00:21:43.149Z,3.60
2024-05-09T00:24:28.616Z,3.30
2024-05-09T00:27:14.360Z,3.90
2024-05-09T00:30:00.122Z,3.40
2024-05-09T00:32:45.887Z,3.90
2024-05-09T00:35:31.496Z,3.30
2024-05-09T00:38:17.082Z,3.50
2024-05-09T00:41:02.973Z,3.20
2024-05-09T00:43:48.532Z,3.40
2024-05-09T00:46:34.619Z,3.60
2024-05-09T00:49:22.056Z,3.80
2024-05-09T00:52:09.478Z,3.63
2024-05-09T00:54:58.167Z,3.67
2024-05-09T00:57:44.788Z,4.00
2024-05-09T01:00:35.890Z,4.00
2024-05-09T01:03:25.615Z,3.43
2024-05-09T01:06:11.777Z,3.40
2024-05-09T01:08:57.506Z,3.50
2024-05-09T01:11:42.576Z,3.83
2024-05-09T01:14:28.250Z,3.87
2024-05-09T01:17:14.297Z,3.60
2024-05-09T01:19:59.608Z,3.83
2024-05-09T01:22:45.630Z,3.60
2024-05-09T01:25:32.918Z,3.80
2024-05-09T01:28:18.819Z,3.30
2024-05-09T01:31:04.446Z,3.60
2024-05-09T01:33:49.965Z,3.30
2024-05-09T01:36:35.263Z,3.87
2024-05-09T01:39:20.753Z,3.80
2024-05-09T01:42:06.250Z,3.67
2024-05-09T01:44:52.027Z,3.70
2024-05-09T01:47:37.771Z,3.83
2024-05-09T01:50:35.722Z,3.77
2024-05-09T01:53:24.745Z,4.03
2024-05-09T01:56:10.448Z,3.80
2024-05-09T01:58:55.864Z,3.67
2024-05-09T02:01:56.210Z,3.47
2024-05-09T02:04:46.663Z,3.80
2024-05-09T02:07:32.433Z,3.80
2024-05-09T02:10:23.525Z,3.60
2024-05-09T02:13:16.572Z,3.90
2024-05-09T02:16:01.905Z,3.83
2024-05-09T02:18:47.659Z,3.57
2024-05-09T02:21:34.344Z,3.90
2024-05-09T02:24:19.948Z,3.60
2024-05-09T02:27:05.438Z,3.60
2024-05-09T02:29:50.654Z,3.47
2024-05-09T02:32:35.838Z,3.70
2024-05-09T02:35:21.594Z,3.73
2024-05-09T02:38:09.258Z,3.93
2024-05-09T02:40:54.836Z,3.77
2024-05-09T02:43:40.355Z,3.63
2024-05-09T02:46:25.807Z,3.53
2024-05-09T02:49:11.887Z,3.87
2024-05-09T02:51:57.424Z,3.97
2024-05-09T02:54:43.203Z,3.90
2024-05-09T02:57:28.881Z,4.40
2024-05-09T03:00:19.101Z,3.80
2024-05-09T03:03:13.786Z,3.97
2024-05-09T03:06:02.402Z,3.70
2024-05-09T03:08:48.029Z,4.30
2024-05-09T03:11:33.559Z,4.03
2024-05-09T03:14:19.563Z,4.00
2024-05-09T03:17:05.586Z,4.17
2024-05-09T03:19:51.249Z,3.60
2024-05-09T03:22:36.763Z,4.30
2024-05-09T03:25:22.170Z,3.90
2024-05-09T03:28:07.663Z,3.57
2024-05-09T03:30:52.849Z,3.80
2024-05-09T03:33:38.465Z,3.57
2024-05-09T03:36:24.055Z,3.50
2024-05-09T03:39:12.543Z,3.67
2024-05-09T03:41:57.954Z,3.77
2024-05-09T03:44:43.539Z,3.77
2024-05-09T03:47:28.874Z,3.30
2024-05-09T03:50:22.005Z,3.57
2024-05-09T03:53:13.121Z,3.23
2024-05-09T03:55:58.892Z,3.87
2024-05-09T03:58:44.509Z,3.90
2024-05-09T04:01:30.399Z,3.70
2024-05-09T04:04:16.061Z,4.63
2024-05-09T04:07:01.483Z,4.07
2024-05-09T04:09:47.150Z,4.23
2024-05-09T04:12:32.216Z,4.20
2024-05-09T04:15:17.910Z,4.43
2024-05-09T04:18:03.456Z,4.10
2024-05-09T04:20:49.371Z,4.17
2024-05-09T04:23:34.943Z,4.70
2024-05-09T04:26:20.312Z,3.90
2024-05-09T04:29:05.976Z,4.00
2024-05-09T04:31:51.681Z,4.90
2024-05-09T04:34:37.527Z,5.00
2024-05-09T04:37:22.920Z,4.27
2024-05-09T04:40:14.191Z,5.00
2024-05-09T04:43:07.001Z,4.60
2024-05-09T04:45:53.659Z,4.83
2024-05-09T04:48:38.820Z,4.97
2024-05-09T04:51:24.435Z,4.73
2024-05-09T04:54:15.681Z,4.83
2024-05-09T04:57:07.330Z,4.63
2024-05-09T04:59:52.875Z,5.57
2024-05-09T05:02:38.570Z,6.00
2024-05-09T05:05:23.993Z,5.87
2024-05-09T05:08:13.973Z,6.80
2024-05-09T05:11:00.024Z,6.93
2024-05-09T05:13:45.794Z,6.43
2024-05-09T05:16:31.530Z,6.70
2024-05-09T05:19:17.793Z,6.83
2024-05-09T05:22:03.180Z,8.30
2024-05-09T05:24:48.724Z,9.17
2024-05-09T05:27:33.994Z,9.00
2024-05-09T05:30:24.982Z,9.77
2024-05-09T05:33:16.160Z,9.87
2024-05-09T05:36:01.922Z,12.90
2024-05-09T05:38:47.490Z,12.47
2024-05-09T05:41:33.089Z,11.30
2024-05-09T05:44:18.642Z,10.83
2024-05-09T05:47:04.312Z,9.97
2024-05-09T05:49:49.614Z,11.00
2024-05-09T05:52:35.176Z,10.93
2024-05-09T05:55:20.808Z,9.67
2024-05-09T05:58:10.261Z,9.57
2024-05-09T06:00:56.145Z,9.13
2024-05-09T06:03:41.776Z,9.27
2024-05-09T06:06:27.193Z,10.37
2024-05-09T06:09:12.850Z,10.30
2024-05-09T06:11:58.265Z,9.97
2024-05-09T06:14:44.340Z,10.20
2024-05-09T06:17:29.739Z,9.53
2024-05-09T06:20:20.721Z,9.93
2024-05-09T06:23:14.160Z,9.87
2024-05-09T06:26:00.085Z,10.10
2024-05-09T06:28:45.452Z,9.37
2024-05-09T06:31:31.011Z,8.60
2024-05-09T06:34:18.790Z,9.23
2024-05-09T06:37:04.526Z,9.37
2024-05-09T06:39:49.939Z,7.77
2024-05-09T06:42:35.486Z,7.17
2024-05-09T06:45:21.179Z,7.00
2024-05-09T06:48:07.681Z,7.20
2024-05-09T06:50:53.371Z,6.83
2024-05-09T06:53:39.986Z,6.43
2024-05-09T06:56:25.263Z,6.70
2024-05-09T06:59:10.911Z,6.57
2024-05-09T07:01:56.431Z,6.40
2024-05-09T07:04:42.320Z,6.73
2024-05-09T07:07:27.924Z,7.60
2024-05-09T07:10:21.667Z,6.93
2024-05-09T07:13:12.211Z,6.77
2024-05-09T07:15:58.053Z,7.57
2024-05-09T07:18:43.970Z,8.13
2024-05-09T07:21:29.449Z,8.00
2024-05-09T07:24:14.854Z,6.93
2024-05-09T07:27:00.584Z,7.87
2024-05-09T07:29:45.825Z,7.67
2024-05-09T07:32:31.346Z,8.23
2024-05-09T07:35:16.893Z,8.10
2024-05-09T07:38:02.621Z,8.70
2024-05-09T07:40:48.670Z,9.17
2024-05-09T07:43:34.105Z,9.50
2024-05-09T07:47:14.496Z,8.37
2024-05-09T07:53:29.721Z,9.30
2024-05-09T07:55:19.431Z,9.27
2024-05-09T07:58:04.993Z,9.00
2024-05-09T08:00:50.347Z,9.63
2024-05-09T08:03:36.122Z,9.67
2024-05-09T08:06:23.649Z,9.63
2024-05-09T08:09:13.882Z,9.30
2024-05-09T08:12:04.890Z,9.13
2024-05-09T08:14:50.515Z,9.50
2024-05-09T08:17:35.987Z,10.47
2024-05-09T08:20:30.153Z,8.37
2024-05-09T08:23:17.766Z,8.70
2024-05-09T08:26:03.344Z,8.90
2024-05-09T08:28:49.077Z,9.10
2024-05-09T08:31:38.584Z,8.73
2024-05-09T08:34:23.783Z,8.13
2024-05-09T08:37:15.491Z,8.47
2024-05-09T08:40:08.544Z,7.93
2024-05-09T08:42:57.756Z,7.87
2024-05-09T08:45:44.960Z,8.23
2024-05-09T08:48:34.434Z,8.60
2024-05-09T08:51:20.279Z,8.27
2024-05-09T08:54:05.727Z,8.27
2024-05-09T08:56:51.593Z,8.03
2024-05-09T08:59:44.728Z,8.80
2024-05-09T09:02:31.740Z,8.57
2024-05-09T09:05:17.979Z,8.30
2024-05-09T09:08:07.560Z,8.20
2024-05-09T09:10:57.593Z,7.53
2024-05-09T09:13:43.387Z,7.67
2024-05-09T09:16:35.727Z,7.67
2024-05-09T09:19:23.571Z,7.60
2024-05-09T09:22:09.374Z,8.17
2024-05-09T09:24:55.347Z,8.20
2024-05-09T09:27:41.251Z,7.77
2024-05-09T09:30:35.140Z,7.43
2024-05-09T09:33:23.301Z,7.40
2024-05-09T09:36:11.202Z,8.03
2024-05-09T09:38:57.783Z,8.33
2024-05-09T09:41:47.246Z,7.67
2024-05-09T09:44:34.218Z,8.27
2024-05-09T09:47:20.649Z,8.27
2024-05-09T09:50:14.142Z,8.02
2024-05-09T09:53:05.017Z,7.90
2024-05-09T09:55:52.133Z,8.77
2024-05-09T09:58:40.122Z,8.98
2024-05-09T10:01:25.598Z,8.55
2024-05-09T10:04:12.938Z,8.47
2024-05-09T10:07:01.410Z,8.13
2024-05-09T10:09:47.263Z,8.10
2024-05-09T10:12:32.657Z,8.10
2024-05-09T10:15:19.951Z,8.32
2024-05-09T10:18:08.473Z,8.75
2024-05-09T10:20:54.601Z,8.13
2024-05-09T10:23:39.842Z,8.82
2024-05-09T10:26:32.191Z,7.18
2024-05-09T10:29:19.281Z,7.15
2024-05-09T10:32:04.833Z,7.32
2024-05-09T10:35:21.313Z,6.95
2024-05-09T10:38:07.470Z,7.40
2024-05-09T10:40:56.680Z,6.40
2024-05-09T10:43:42.102Z,7.35
2024-05-09T10:46:27.423Z,6.55
2024-05-09T10:49:16.917Z,7.07
2024-05-09T10:52:04.291Z,7.35
2024-05-09T10:54:54.194Z,6.70
2024-05-09T10:57:43.389Z,6.82
2024-05-09T11:00:36.017Z,7.00
2024-05-09T11:03:26.167Z,7.43
2024-05-09T11:06:11.639Z,7.00
2024-05-09T11:08:57.743Z,6.20
2024-05-09T11:11:43.283Z,6.00
2024-05-09T11:14:28.613Z,6.33
2024-05-09T11:17:14.254Z,6.27
2024-05-09T11:20:00.416Z,6.03
2024-05-09T11:22:45.759Z,5.87
2024-05-09T11:25:33.169Z,6.30
2024-05-09T11:28:19.346Z,5.93
2024-05-09T11:31:10.412Z,5.47
2024-05-09T11:33:56.456Z,5.45
2024-05-09T11:36:41.992Z,6.05
2024-05-09T11:39:27.758Z,5.63
2024-05-09T11:42:14.309Z,5.57
2024-05-09T11:45:00.456Z,6.38
2024-05-09T11:47:46.547Z,6.03
2024-05-09T11:50:35.578Z,6.07
2024-05-09T11:53:21.488Z,5.43
2024-05-09T11:56:07.381Z,5.50
2024-05-09T11:58:53.342Z,5.00
2024-05-09T12:01:39.022Z,5.30
2024-05-09T12:04:24.462Z,5.43
2024-05-09T12:07:12.662Z,5.93
2024-05-09T12:09:58.352Z,6.15
2024-05-09T12:12:44.023Z,6.63
2024-05-09T12:15:29.633Z,5.13
2024-05-09T12:18:15.356Z,4.60
2024-05-09T12:21:01.523Z,4.13
2024-05-09T12:23:47.272Z,4.10
2024-05-09T12:26:32.810Z,4.88
2024-05-09T12:29:18.185Z,4.60
2024-05-09T12:32:03.846Z,4.60
2024-05-09T12:34:49.247Z,4.47
2024-05-09T12:37:34.443Z,4.55
2024-05-09T12:40:26.850Z,4.38
2024-05-09T12:43:19.842Z,4.25
2024-05-09T12:46:05.579Z,4.05
2024-05-09T12:48:51.864Z,3.95
2024-05-09T12:51:38.290Z,3.30
2024-05-09T12:54:23.705Z,3.30
2024-05-09T12:57:09.652Z,3.70
2024-05-09T12:59:55.719Z,3.92
2024-05-09T13:02:41.433Z,5.55
2024-05-09T13:05:27.331Z,4.90
2024-05-09T13:08:13.860Z,3.40
2024-05-09T13:10:59.442Z,3.47
2024-05-09T13:13:44.961Z,4.32
2024-05-09T13:16:30.803Z,3.90
2024-05-09T13:19:16.644Z,3.88
2024-05-09T13:22:02.541Z,3.20
2024-05-09T13:24:48.051Z,2.97
2024-05-09T13:27:33.894Z,3.25
2024-05-09T13:30:28.700Z,3.00
2024-05-09T13:33:20.813Z,3.00
2024-05-09T13:36:06.733Z,3.00
2024-05-09T13:38:52.240Z,3.03
2024-05-09T13:41:37.607Z,3.08
2024-05-09T13:44:22.894Z,2.90
2024-05-09T13:47:09.043Z,3.03
2024-05-09T13:49:54.866Z,3.60
2024-05-09T13:52:40.249Z,3.63
2024-05-09T13:55:25.657Z,3.22
2024-05-09T13:58:11.282Z,3.40
2024-05-09T14:00:56.546Z,3.35
2024-05-09T14:03:42.429Z,3.70
2024-05-09T14:06:28.058Z,3.53
2024-05-09T14:09:13.576Z,3.40
2024-05-09T14:11:59.303Z,3.78
2024-05-09T14:14:44.843Z,3.78
2024-05-09T14:17:30.805Z,4.13
2024-05-09T14:20:23.872Z,4.13
2024-05-09T14:23:17.814Z,4.32
2024-05-09T14:26:03.281Z,4.85
2024-05-09T14:28:48.834Z,4.30
2024-05-09T14:31:36.896Z,3.75
2024-05-09T14:34:24.077Z,4.40
2024-05-09T14:37:09.794Z,4.05
2024-05-09T14:39:55.131Z,3.85
2024-05-09T14:42:41.410Z,4.68
2024-05-09T14:45:26.695Z,4.15
2024-05-09T14:48:15.586Z,4.03
2024-05-09T14:51:01.031Z,4.30
2024-05-09T14:53:46.627Z,4.63
2024-05-09T14:56:31.961Z,5.30
2024-05-09T14:59:17.792Z,5.35
2024-05-09T15:02:03.647Z,5.25
2024-05-09T15:04:49.236Z,4.90
2024-05-09T15:07:34.701Z,5.28
2024-05-09T15:10:27.048Z,5.07
2024-05-09T15:13:20.790Z,4.50
2024-05-09T15:16:06.762Z,4.70
2024-05-09T15:18:52.295Z,4.80
2024-05-09T15:21:37.552Z,4.43
2024-05-09T15:24:23.151Z,5.00
2024-05-09T15:27:08.771Z,5.50
2024-05-09T15:29:54.269Z,5.95
2024-05-09T15:32:40.172Z,5.20
2024-05-09T15:35:25.337Z,5.67
2024-05-09T15:38:11.042Z,6.37
2024-05-09T15:40:56.932Z,5.65
2024-05-09T15:43:42.353Z,5.80
2024-05-09T15:46:28.220Z,5.60
2024-05-09T15:49:13.721Z,5.63
2024-05-09T15:51:59.154Z,5.60
2024-05-09T15:54:44.898Z,5.00
2024-05-09T15:57:30.322Z,4.95
2024-05-09T16:00:24.814Z,5.85
2024-05-09T16:03:21.257Z,6.43
2024-05-09T16:06:06.776Z,5.22
2024-05-09T16:08:52.127Z,5.10
2024-05-09T16:11:37.920Z,5.30
2024-05-09T16:14:23.560Z,4.90
2024-05-09T16:17:09.236Z,5.40
2024-05-09T16:19:54.896Z,5.38
2024-05-09T16:22:40.285Z,6.60
2024-05-09T16:25:25.421Z,5.87
2024-05-09T16:28:12.164Z,5.53
2024-05-09T16:30:58.264Z,6.00
2024-05-09T16:33:43.712Z,6.17
2024-05-09T16:36:29.310Z,5.80
2024-05-09T16:39:15.005Z,6.77
2024-05-09T16:42:00.042Z,6.40
2024-05-09T16:44:45.710Z,6.13
2024-05-09T16:47:31.507Z,5.87
2024-05-09T16:50:25.692Z,6.40
2024-05-09T16:53:14.352Z,6.93
2024-05-09T16:56:02.126Z,5.97
2024-05-09T16:58:47.473Z,6.70
2024-05-09T17:01:33.305Z,6.87
2024-05-09T17:04:18.861Z,5.80
2024-05-09T17:07:05.350Z,6.80
2024-05-09T17:09:50.759Z,7.30
2024-05-09T17:12:36.163Z,7.13
2024-05-09T17:15:21.627Z,7.27
2024-05-09T17:18:07.847Z,7.43
2024-05-09T17:20:53.325Z,7.53
2024-05-09T17:23:39.505Z,7.67
2024-05-09T17:26:25.623Z,8.47
2024-05-09T17:29:12.466Z,9.03
2024-05-09T17:31:58.135Z,8.80
2024-05-09T17:34:43.792Z,8.07
2024-05-09T17:37:31.182Z,7.80
2024-05-09T17:40:17.390Z,8.03
2024-05-09T17:43:08.940Z,7.70
2024-05-09T17:45:55.979Z,8.03
2024-05-09T17:48:42.220Z,7.63
2024-05-09T17:51:27.581Z,8.03
2024-05-09T17:54:13.282Z,7.20
2024-05-09T17:56:58.628Z,7.70
2024-05-09T17:59:44.043Z,8.60
2024-05-09T18:02:29.568Z,7.47
2024-05-09T18:05:15.146Z,7.83
2024-05-09T18:08:00.731Z,7.33
2024-05-09T18:10:46.582Z,8.07
2024-05-09T18:13:32.540Z,7.40
2024-05-09T18:16:18.328Z,7.63
2024-05-09T18:19:04.132Z,7.50
2024-05-09T18:21:49.767Z,7.53
2024-05-09T18:24:35.413Z,7.53
2024-05-09T18:27:21.862Z,8.57
2024-05-09T18:30:21.250Z,8.33
2024-05-09T18:33:13.975Z,8.30
2024-05-09T18:35:59.491Z,7.07
2024-05-09T18:38:45.065Z,8.17
2024-05-09T18:41:30.574Z,7.87
2024-05-09T18:44:16.177Z,8.20
2024-05-09T18:47:01.662Z,7.87
2024-05-09T18:49:47.420Z,8.90
2024-05-09T18:52:32.948Z,8.77
2024-05-09T18:55:18.837Z,8.13
2024-05-09T18:58:05.045Z,8.77
2024-05-09T19:00:53.276Z,8.40
2024-05-09T19:03:40.472Z,8.73
2024-05-09T19:06:26.195Z,9.30
2024-05-09T19:09:11.944Z,8.97
2024-05-09T19:11:57.564Z,9.07
2024-05-09T19:14:43.603Z,9.20
2024-05-09T19:17:29.583Z,9.40
2024-05-09T19:20:24.885Z,8.93
2024-05-09T19:23:14.169Z,9.23
2024-05-09T19:25:59.794Z,9.40
2024-05-09T19:28:45.182Z,8.87
2024-05-09T19:31:31.219Z,8.73
2024-05-09T19:34:16.846Z,8.90
2024-05-09T19:37:02.585Z,9.20
2024-05-09T19:39:47.950Z,8.93
2024-05-09T19:42:33.470Z,8.70
2024-05-09T19:45:19.182Z,8.63
2024-05-09T19:48:06.297Z,9.37
2024-05-09T19:50:53.254Z,9.00
2024-05-09T19:53:39.232Z,9.40
2024-05-09T19:56:24.961Z,8.87
2024-05-09T19:59:11.991Z,9.97
2024-05-09T20:01:57.808Z,9.50
2024-05-09T20:04:45.912Z,9.33
2024-05-09T20:07:33.157Z,8.83
2024-05-09T20:10:24.133Z,9.27
2024-05-09T20:13:15.045Z,8.77
2024-05-09T20:16:01.492Z,8.73
2024-05-09T20:18:47.510Z,7.57
2024-05-09T20:21:33.271Z,8.53
2024-05-09T20:24:18.753Z,7.83
2024-05-09T20:27:04.722Z,8.57
2024-05-09T20:29:50.503Z,8.10
2024-05-09T20:32:36.409Z,9.13
2024-05-09T20:35:21.874Z,7.70
2024-05-09T20:38:07.579Z,9.30
2024-05-09T20:40:53.110Z,9.30
2024-05-09T20:43:38.807Z,9.67
2024-05-09T20:46:23.875Z,8.93
2024-05-09T20:49:09.594Z,9.10
2024-05-09T20:51:55.242Z,9.30
2024-05-09T20:54:41.343Z,8.80
2024-05-09T20:57:27.063Z,8.67
2024-05-09T21:00:18.597Z,8.70
2024-05-09T21:03:07.636Z,9.33
2024-05-09T21:05:53.270Z,9.30
2024-05-09T21:08:38.855Z,10.10
2024-05-09T21:11:25.229Z,10.03
2024-05-09T21:14:10.965Z,9.93
2024-05-09T21:16:56.852Z,10.20
2024-05-09T21:19:42.369Z,9.90
2024-05-09T21:22:27.781Z,10.57
2024-05-09T21:25:13.418Z,9.80
2024-05-09T21:27:59.061Z,9.63
2024-05-09T21:30:44.468Z,9.97
2024-05-09T21:33:29.919Z,11.37
2024-05-09T21:36:15.685Z,11.67
2024-05-09T21:39:01.214Z,10.63
2024-05-09T21:41:46.866Z,10.27
2024-05-09T21:44:32.526Z,10.20
2024-05-09T21:47:18.002Z,10.50
2024-05-09T21:50:06.112Z,10.10
2024-05-09T21:52:51.319Z,11.30
2024-05-09T21:55:37.101Z,10.43
2024-05-09T21:58:23.647Z,10.27
2024-05-09T22:01:09.283Z,11.40
2024-05-09T22:03:54.756Z,11.10
2024-05-09T22:06:40.558Z,10.87
2024-05-09T22:09:26.665Z,10.67
2024-05-09T22:12:12.510Z,10.80
2024-05-09T22:14:57.991Z,11.83
2024-05-09T22:17:43.618Z,11.47
2024-05-09T22:20:36.147Z,11.17
2024-05-09T22:23:24.372Z,11.60
2024-05-09T22:26:09.560Z,11.60
2024-05-09T22:28:55.338Z,10.23
2024-05-09T22:31:40.699Z,10.97
2024-05-09T22:34:26.584Z,12.23
2024-05-09T22:37:12.217Z,13.70
2024-05-09T22:39:57.821Z,13.93
2024-05-09T22:42:43.644Z,13.17
2024-05-09T22:45:29.173Z,13.10
2024-05-09T22:48:14.872Z,13.20
2024-05-09T22:51:00.811Z,13.50
2024-05-09T22:53:46.042Z,15.43
2024-05-09T22:56:31.730Z,14.23
2024-05-09T22:59:17.494Z,14.80
2024-05-09T23:02:03.446Z,15.33
2024-05-09T23:04:49.247Z,14.80
2024-05-09T23:07:34.671Z,13.70
2024-05-09T23:10:27.494Z,15.30
2024-05-09T23:13:17.607Z,15.53
2024-05-09T23:16:03.783Z,14.63
2024-05-09T23:18:49.764Z,15.73
2024-05-09T23:21:39.121Z,14.70
2024-05-09T23:24:24.671Z,13.90
2024-05-09T23:27:10.343Z,14.27
2024-05-09T23:29:55.989Z,15.20
2024-05-09T23:32:41.771Z,14.27
2024-05-09T23:35:27.240Z,13.87
2024-05-09T23:38:13.007Z,15.17
2024-05-09T23:40:58.755Z,13.53
2024-05-09T23:43:44.163Z,14.30
2024-05-09T23:46:29.762Z,13.83
2024-05-09T23:49:15.681Z,14.30
2024-05-09T23:52:01.037Z,14.63
2024-05-09T23:54:46.742Z,14.97
2024-05-09T23:57:32.590Z,12.93
